Team Kb — XPE7822 — position and weather

sailwx.info

Track history (hours):
 
Tides and Currents Weather Stations Pressure Air Temp Water Temp Dewpoint Dewpoint Depression Visibility Wind Speed Wind Dir Waves Ship Positions

Team Kb

Last reported at 2018-Apr-17 14:01 UTC. Time now 2018-Jul-23 17:28 UTC.
Position N 55°11' E 014°42'.
Warning: this ship's position is months out of date.

Type: Pleasure craft. MMSI: 219021562.

Date/timePositionNaut miles runAvg speedWind from/ knotsBaromVisibWave heightAir tempDewpointWater temp
2018-Apr-17 14:01N 55°11' E 014°42'0 4.7
2018-Apr-17 14:00N 55°11' E 014°42'2 3.0
2018-Apr-17 13:30N 55°12' E 014°40'1 2.5
2018-Apr-17 13:00N 55°13' E 014°39'1 2.2
2018-Apr-17 12:29N 55°15' E 014°40'1 2.2
2018-Apr-17 11:58N 55°16' E 014°40'1 1.9
2018-Apr-17 11:20N 55°17' E 014°41'1 0.3
2018-Apr-17 07:25N 55°18' E 014°41'1 2.3
2018-Apr-17 07:00N 55°17' E 014°41'1 2.5
2018-Apr-17 06:28N 55°16' E 014°41'2 3.9
2018-Apr-17 05:57N 55°14' E 014°41'2 0.1
2018-Apr-16 15:49N 55°12' E 014°41'2 6.0
2018-Apr-16 15:29N 55°14' E 014°41'1 1.4
2018-Apr-16 15:00N 55°14' E 014°40'1 2.0
2018-Apr-16 14:29N 55°13' E 014°38'0 0.8
2018-Apr-16 14:00N 55°13' E 014°39'1 2.4
2018-Apr-16 13:30N 55°14' E 014°40'1 2.0
2018-Apr-16 12:59N 55°15' E 014°40'1 1.1
2018-Apr-16 12:30N 55°15' E 014°40'1 2.3
2018-Apr-16 12:00N 55°14' E 014°39'1 2.0
2018-Apr-16 11:30N 55°13' E 014°38'0 0.5
2018-Apr-16 11:00N 55°13' E 014°38'1 1.9
2018-Apr-16 10:30N 55°14' E 014°39'2 1.5
2018-Apr-16 09:28N 55°15' E 014°39'1 2.0
2018-Apr-16 08:57N 55°15' E 014°38'1 2.5
2018-Apr-16 08:29N 55°14' E 014°39'1 2.5
2018-Apr-16 08:00N 55°12' E 014°40'1 2.3
2018-Apr-16 07:30N 55°11' E 014°41'1 0.4
2018-Apr-16 05:28N 55°11' E 014°42'0 0.0
2018-Apr-15 14:37N 55°11' E 014°42'220.6
2018-Apr-15 14:30N 55°09' E 014°39'815.0
2018-Apr-15 14:00N 55°05' E 014°29'1 2.1
2018-Apr-15 13:29N 55°04' E 014°27'1 0.7
2018-Apr-15 12:09N 55°04' E 014°25'0 2.4
2018-Apr-15 12:00N 55°05' E 014°26'1 0.8
2018-Apr-15 11:04N 55°04' E 014°26'1 1.9
2018-Apr-15 10:45N 55°04' E 014°26'2 1.4
2018-Apr-15 09:25N 55°06' E 014°28'1 2.1
2018-Apr-15 08:54N 55°06' E 014°30'1 2.2
2018-Apr-15 08:30N 55°06' E 014°31'1 2.5
2018-Apr-15 08:00N 55°07' E 014°32'1 2.3
2018-Apr-15 07:27N 55°08' E 014°34'1 2.3
2018-Apr-15 07:00N 55°08' E 014°36'1 2.4
2018-Apr-15 06:30N 55°09' E 014°38'1 2.0
2018-Apr-15 06:01N 55°10' E 014°38'1 2.2
2018-Apr-15 05:27N 55°11' E 014°39'1 2.9
2018-Apr-15 04:57N 55°11' E 014°42'0 0.0
2018-Apr-14 11:17N 55°11' E 014°42'0 0.0
2018-Apr-14 09:03N 55°11' E 014°42'0 0.0
2018-Apr-14 08:59N 55°11' E 014°42'7 8.5
2018-Apr-14 08:12N 55°11' E 014°31'1 2.1
2018-Apr-14 07:50N 55°10' E 014°30'1 1.5
2018-Apr-14 07:29N 55°10' E 014°31'1 1.1
2018-Apr-14 06:56N 55°09' E 014°30'1 2.1
2018-Apr-14 06:29N 55°10' E 014°32'1 2.3
2018-Apr-14 05:58N 55°10' E 014°34'1 2.8
2018-Apr-14 05:30N 55°09' E 014°36'  
Track history (hours):
 
Tides and Currents Weather Stations Pressure Air Temp Water Temp Dewpoint Dewpoint Depression Visibility Wind Speed Wind Dir Waves Ship Positions

Team Kb

Last reported at 2018-Apr-17 14:01 UTC. Time now 2018-Jul-23 17:28 UTC.
Position N 55°11' E 014°42'.
Warning: this ship's position is months out of date.

Type: Pleasure craft. MMSI: 219021562.

Date/timePositionNaut miles runAvg speedWind from/ knotsBaromVisibWave heightAir tempDewpointWater temp
2018-Apr-17 14:01N 55°11' E 014°42'0 4.7
2018-Apr-17 14:00N 55°11' E 014°42'2 3.0
2018-Apr-17 13:30N 55°12' E 014°40'1 2.5
2018-Apr-17 13:00N 55°13' E 014°39'1 2.2
2018-Apr-17 12:29N 55°15' E 014°40'1 2.2
2018-Apr-17 11:58N 55°16' E 014°40'1 1.9
2018-Apr-17 11:20N 55°17' E 014°41'1 0.3
2018-Apr-17 07:25N 55°18' E 014°41'1 2.3
2018-Apr-17 07:00N 55°17' E 014°41'1 2.5
2018-Apr-17 06:28N 55°16' E 014°41'2 3.9
2018-Apr-17 05:57N 55°14' E 014°41'2 0.1
2018-Apr-16 15:49N 55°12' E 014°41'2 6.0
2018-Apr-16 15:29N 55°14' E 014°41'1 1.4
2018-Apr-16 15:00N 55°14' E 014°40'1 2.0
2018-Apr-16 14:29N 55°13' E 014°38'0 0.8
2018-Apr-16 14:00N 55°13' E 014°39'1 2.4
2018-Apr-16 13:30N 55°14' E 014°40'1 2.0
2018-Apr-16 12:59N 55°15' E 014°40'1 1.1
2018-Apr-16 12:30N 55°15' E 014°40'1 2.3
2018-Apr-16 12:00N 55°14' E 014°39'1 2.0
2018-Apr-16 11:30N 55°13' E 014°38'0 0.5
2018-Apr-16 11:00N 55°13' E 014°38'1 1.9
2018-Apr-16 10:30N 55°14' E 014°39'2 1.5
2018-Apr-16 09:28N 55°15' E 014°39'1 2.0
2018-Apr-16 08:57N 55°15' E 014°38'1 2.5
2018-Apr-16 08:29N 55°14' E 014°39'1 2.5
2018-Apr-16 08:00N 55°12' E 014°40'1 2.3
2018-Apr-16 07:30N 55°11' E 014°41'1 0.4
2018-Apr-16 05:28N 55°11' E 014°42'0 0.0
2018-Apr-15 14:37N 55°11' E 014°42'220.6
2018-Apr-15 14:30N 55°09' E 014°39'815.0
2018-Apr-15 14:00N 55°05' E 014°29'1 2.1
2018-Apr-15 13:29N 55°04' E 014°27'1 0.7
2018-Apr-15 12:09N 55°04' E 014°25'0 2.4
2018-Apr-15 12:00N 55°05' E 014°26'1 0.8
2018-Apr-15 11:04N 55°04' E 014°26'1 1.9
2018-Apr-15 10:45N 55°04' E 014°26'2 1.4
2018-Apr-15 09:25N 55°06' E 014°28'1 2.1
2018-Apr-15 08:54N 55°06' E 014°30'1 2.2
2018-Apr-15 08:30N 55°06' E 014°31'1 2.5
2018-Apr-15 08:00N 55°07' E 014°32'1 2.3
2018-Apr-15 07:27N 55°08' E 014°34'1 2.3
2018-Apr-15 07:00N 55°08' E 014°36'1 2.4
2018-Apr-15 06:30N 55°09' E 014°38'1 2.0
2018-Apr-15 06:01N 55°10' E 014°38'1 2.2
2018-Apr-15 05:27N 55°11' E 014°39'1 2.9
2018-Apr-15 04:57N 55°11' E 014°42'0 0.0
2018-Apr-14 11:17N 55°11' E 014°42'0 0.0
2018-Apr-14 09:03N 55°11' E 014°42'0 0.0
2018-Apr-14 08:59N 55°11' E 014°42'7 8.5
2018-Apr-14 08:12N 55°11' E 014°31'1 2.1
2018-Apr-14 07:50N 55°10' E 014°30'1 1.5
2018-Apr-14 07:29N 55°10' E 014°31'1 1.1
2018-Apr-14 06:56N 55°09' E 014°30'1 2.1
2018-Apr-14 06:29N 55°10' E 014°32'1 2.3
2018-Apr-14 05:58N 55°10' E 014°34'1 2.8
2018-Apr-14 05:30N 55°09' E 014°36'  

Dump ship's entire track history